createdAt,value
2017-12-03T00:00:24.644Z,0
2017-12-03T00:01:25.244Z,0
2017-12-03T00:02:25.853Z,0
2017-12-03T00:03:26.454Z,0
2017-12-03T00:04:27.051Z,0
2017-12-03T00:05:27.647Z,0
2017-12-03T00:06:28.243Z,0
2017-12-03T00:07:28.838Z,0
2017-12-03T00:08:29.430Z,0
2017-12-03T00:09:30.038Z,0
2017-12-03T00:10:30.626Z,0
2017-12-03T00:11:31.232Z,0
2017-12-03T00:12:31.824Z,0
2017-12-03T00:13:32.411Z,0
2017-12-03T00:14:33.021Z,0
2017-12-03T00:15:33.605Z,0
2017-12-03T00:16:34.203Z,0
2017-12-03T00:17:34.810Z,0
2017-12-03T00:18:35.412Z,0
2017-12-03T00:19:36.012Z,0
2017-12-03T00:20:36.594Z,0
2017-12-03T00:21:37.183Z,0
2017-12-03T00:22:37.796Z,0
2017-12-03T00:23:38.406Z,0
2017-12-03T00:24:38.993Z,0
2017-12-03T00:25:39.597Z,0
2017-12-03T00:26:40.183Z,0
2017-12-03T00:27:40.780Z,0
2017-12-03T00:28:41.382Z,0
2017-12-03T00:29:41.972Z,0
2017-12-03T00:30:42.568Z,0
2017-12-03T00:31:43.169Z,0
2017-12-03T00:32:43.757Z,0
2017-12-03T00:33:44.362Z,0
2017-12-03T00:34:44.969Z,0
2017-12-03T00:35:45.565Z,0
2017-12-03T00:36:46.151Z,0
2017-12-03T00:37:46.754Z,0
2017-12-03T00:38:47.350Z,0
2017-12-03T00:39:47.954Z,0
2017-12-03T00:40:48.550Z,0
2017-12-03T00:41:49.141Z,0
2017-12-03T00:42:49.738Z,0
2017-12-03T00:43:50.344Z,0
2017-12-03T00:44:50.948Z,0
2017-12-03T00:45:51.548Z,0
2017-12-03T00:46:52.149Z,0
2017-12-03T00:47:52.740Z,0
2017-12-03T00:48:53.333Z,0
2017-12-03T00:49:53.936Z,0
2017-12-03T00:50:54.526Z,0
2017-12-03T00:51:55.114Z,0
2017-12-03T00:52:55.714Z,0
2017-12-03T00:53:56.323Z,0
2017-12-03T00:54:56.912Z,0
2017-12-03T00:55:57.506Z,0
2017-12-03T00:56:58.100Z,0
2017-12-03T00:57:58.710Z,0
2017-12-03T00:58:59.298Z,0
2017-12-03T00:59:59.894Z,0
2017-12-03T01:01:50.544Z,0
2017-12-03T01:02:51.139Z,0
2017-12-03T01:03:51.740Z,0
2017-12-03T01:04:52.341Z,0
2017-12-03T01:05:52.943Z,0
2017-12-03T01:06:53.544Z,0
2017-12-03T01:07:54.145Z,0
2017-12-03T01:08:54.748Z,0
2017-12-03T01:09:55.351Z,0
2017-12-03T01:10:55.964Z,0
2017-12-03T01:11:56.564Z,0
2017-12-03T01:12:57.167Z,0
2017-12-03T01:13:57.770Z,0
2017-12-03T01:14:58.372Z,0
2017-12-03T01:15:58.974Z,0
2017-12-03T01:16:59.577Z,0
2017-12-03T01:18:00.180Z,0
2017-12-03T01:19:00.784Z,0
2017-12-03T01:20:01.386Z,0
2017-12-03T01:21:01.986Z,0
2017-12-03T01:22:02.607Z,0
2017-12-03T01:23:03.209Z,0
2017-12-03T01:24:03.811Z,0
2017-12-03T01:25:04.414Z,0
2017-12-03T01:26:05.020Z,0
2017-12-03T01:27:05.603Z,0
2017-12-03T01:28:06.190Z,0
2017-12-03T01:29:06.778Z,0
2017-12-03T01:30:07.379Z,0
2017-12-03T01:31:07.966Z,0
2017-12-03T01:32:08.559Z,0
2017-12-03T01:33:09.156Z,0
2017-12-03T01:34:09.767Z,0
2017-12-03T01:35:10.363Z,0
2017-12-03T01:36:10.953Z,0
2017-12-03T01:37:11.554Z,0
2017-12-03T01:38:12.155Z,0
2017-12-03T01:39:12.749Z,0
2017-12-03T01:40:13.388Z,0
2017-12-03T01:41:13.964Z,0
2017-12-03T01:42:14.625Z,0
2017-12-03T01:43:15.215Z,0
2017-12-03T01:44:15.812Z,0
2017-12-03T01:45:16.417Z,0
2017-12-03T01:46:17.009Z,0
2017-12-03T01:47:17.596Z,0
2017-12-03T01:48:18.188Z,0
2017-12-03T01:49:18.784Z,0
2017-12-03T01:50:19.388Z,0
2017-12-03T01:51:19.997Z,0
2017-12-03T01:52:20.602Z,0
2017-12-03T01:53:21.197Z,0
2017-12-03T01:54:21.800Z,0
2017-12-03T01:55:22.405Z,0
2017-12-03T01:56:23.001Z,0
2017-12-03T01:57:23.604Z,0
2017-12-03T01:58:24.203Z,0
2017-12-03T01:59:24.808Z,0
2017-12-03T02:00:25.395Z,0
2017-12-03T02:01:25.997Z,0
2017-12-03T02:02:26.592Z,0
2017-12-03T02:03:27.193Z,0
2017-12-03T02:04:27.778Z,0
2017-12-03T02:05:28.376Z,0
2017-12-03T02:06:28.972Z,0
2017-12-03T02:07:29.577Z,0
2017-12-03T02:08:30.161Z,0
2017-12-03T02:09:30.757Z,0
2017-12-03T02:10:31.343Z,0
2017-12-03T02:11:31.943Z,0
2017-12-03T02:12:32.538Z,0
2017-12-03T02:13:33.130Z,0
2017-12-03T02:14:33.738Z,0
2017-12-03T02:15:34.331Z,0
2017-12-03T02:16:34.930Z,0
2017-12-03T02:17:35.537Z,0
2017-12-03T02:18:36.143Z,0
2017-12-03T02:19:36.738Z,0
2017-12-03T02:20:37.334Z,0
2017-12-03T02:21:37.924Z,0
2017-12-03T02:22:38.514Z,0
2017-12-03T02:23:39.115Z,0
2017-12-03T02:24:39.702Z,0
2017-12-03T02:25:40.296Z,0
2017-12-03T02:26:40.887Z,0
2017-12-03T02:27:41.488Z,0
2017-12-03T02:28:42.089Z,0
2017-12-03T02:29:42.675Z,0
2017-12-03T02:30:43.272Z,0
2017-12-03T02:31:43.859Z,0
2017-12-03T02:32:44.462Z,0
2017-12-03T02:33:45.053Z,0
2017-12-03T02:34:45.663Z,0
2017-12-03T02:35:46.271Z,0
2017-12-03T02:36:46.876Z,0
2017-12-03T02:37:47.466Z,0
2017-12-03T02:38:48.066Z,0
2017-12-03T02:39:48.661Z,0
2017-12-03T02:40:49.262Z,0
2017-12-03T02:41:49.856Z,0
2017-12-03T02:42:50.460Z,0
2017-12-03T02:43:51.054Z,0
2017-12-03T02:44:51.665Z,0
2017-12-03T02:45:52.264Z,0
2017-12-03T02:46:52.860Z,0
2017-12-03T02:47:53.462Z,0
2017-12-03T02:48:54.064Z,0
2017-12-03T02:49:54.670Z,0
2017-12-03T02:50:55.260Z,0
2017-12-03T02:51:55.846Z,0
2017-12-03T02:52:56.439Z,0
2017-12-03T02:53:57.038Z,0
2017-12-03T02:54:57.634Z,0
2017-12-03T02:55:58.231Z,0
2017-12-03T02:56:58.818Z,0
2017-12-03T02:57:59.409Z,0
2017-12-03T02:59:00.011Z,0
2017-12-03T03:00:00.619Z,0
2017-12-03T03:01:01.226Z,0
2017-12-03T03:02:01.814Z,0
2017-12-03T03:03:02.400Z,0
2017-12-03T03:04:03.001Z,0
2017-12-03T03:05:03.601Z,0
2017-12-03T03:06:04.198Z,0
2017-12-03T03:07:04.801Z,0
2017-12-03T03:08:05.396Z,0
2017-12-03T03:09:05.991Z,0
2017-12-03T03:10:06.579Z,0
2017-12-03T03:11:07.182Z,0
2017-12-03T03:12:07.785Z,0
2017-12-03T03:13:08.396Z,0
2017-12-03T03:14:08.980Z,0
2017-12-03T03:15:09.573Z,0
2017-12-03T03:16:10.167Z,0
2017-12-03T03:17:10.766Z,0
2017-12-03T03:18:11.363Z,0
2017-12-03T03:19:11.957Z,0
2017-12-03T03:20:12.570Z,0
2017-12-03T03:21:13.159Z,0
2017-12-03T03:22:13.745Z,0
2017-12-03T03:23:14.333Z,0
2017-12-03T03:24:14.947Z,0
2017-12-03T03:25:15.529Z,0
2017-12-03T03:26:16.115Z,0
2017-12-03T03:27:16.703Z,0
2017-12-03T03:28:17.301Z,0
2017-12-03T03:29:17.895Z,0
2017-12-03T03:30:18.499Z,0
2017-12-03T03:31:19.096Z,0
2017-12-03T03:32:19.696Z,0
2017-12-03T03:33:20.279Z,0
2017-12-03T03:34:20.868Z,0
2017-12-03T03:35:21.459Z,0
2017-12-03T03:36:22.069Z,0
2017-12-03T03:37:22.663Z,0
2017-12-03T03:38:23.275Z,0
2017-12-03T03:39:23.867Z,0
2017-12-03T03:40:24.460Z,0
2017-12-03T03:41:25.060Z,0
2017-12-03T03:42:25.662Z,0
2017-12-03T03:43:26.267Z,0
2017-12-03T03:44:26.864Z,0
2017-12-03T03:45:27.449Z,0
2017-12-03T03:46:28.051Z,0
2017-12-03T03:47:28.643Z,0
2017-12-03T03:48:29.239Z,0
2017-12-03T03:49:29.848Z,0
2017-12-03T03:50:30.456Z,0
2017-12-03T03:51:31.061Z,0
2017-12-03T03:52:31.648Z,0
2017-12-03T03:53:32.245Z,0
2017-12-03T03:54:32.855Z,0
2017-12-03T03:55:33.462Z,0
2017-12-03T03:56:34.062Z,0
2017-12-03T03:57:34.659Z,0
2017-12-03T03:58:35.254Z,0
2017-12-03T03:59:35.843Z,0
2017-12-03T04:00:36.442Z,0
2017-12-03T04:01:37.046Z,0
2017-12-03T04:02:37.634Z,0
2017-12-03T04:03:38.220Z,0
2017-12-03T04:04:38.810Z,0
2017-12-03T04:05:39.405Z,0
2017-12-03T04:06:39.991Z,0
2017-12-03T04:07:40.592Z,0
2017-12-03T04:08:41.198Z,0
2017-12-03T04:09:41.793Z,0
2017-12-03T04:10:42.391Z,0
2017-12-03T04:11:42.993Z,0
2017-12-03T04:12:43.594Z,0
2017-12-03T04:13:44.177Z,0
2017-12-03T04:14:44.782Z,0
2017-12-03T04:15:45.362Z,0
2017-12-03T04:16:45.965Z,0
2017-12-03T04:17:46.570Z,0
2017-12-03T04:18:47.173Z,0
2017-12-03T04:19:47.764Z,0
2017-12-03T04:20:48.368Z,0
2017-12-03T04:21:48.975Z,0
2017-12-03T04:22:49.572Z,0
2017-12-03T04:23:50.179Z,0
2017-12-03T04:24:50.788Z,0
2017-12-03T04:25:51.390Z,0
2017-12-03T04:26:51.984Z,0
2017-12-03T04:27:52.592Z,0
2017-12-03T04:28:53.183Z,0
2017-12-03T04:29:53.781Z,0
2017-12-03T04:30:54.384Z,0
2017-12-03T04:31:54.978Z,0
2017-12-03T04:32:55.570Z,0
2017-12-03T04:33:56.169Z,0
2017-12-03T04:34:56.776Z,0
2017-12-03T04:35:57.371Z,0
2017-12-03T04:36:57.966Z,0
2017-12-03T04:37:58.585Z,0
2017-12-03T04:38:59.179Z,0
2017-12-03T04:39:59.778Z,0
2017-12-03T04:41:00.389Z,0
2017-12-03T04:42:00.999Z,0
2017-12-03T04:43:01.603Z,0
2017-12-03T04:44:02.193Z,0
2017-12-03T04:45:02.793Z,0
2017-12-03T04:46:03.390Z,0
2017-12-03T04:47:03.981Z,0
2017-12-03T04:48:04.583Z,0
2017-12-03T04:49:05.175Z,0
2017-12-03T04:50:05.769Z,0
2017-12-03T04:51:06.364Z,0
2017-12-03T04:52:06.958Z,0
2017-12-03T04:53:07.564Z,0
2017-12-03T04:54:08.177Z,0
2017-12-03T04:55:08.781Z,0
2017-12-03T04:56:09.373Z,0
2017-12-03T04:57:09.980Z,0
2017-12-03T04:58:10.574Z,0
2017-12-03T04:59:11.182Z,0
2017-12-03T05:00:11.772Z,0
2017-12-03T05:01:12.372Z,0
2017-12-03T05:02:12.962Z,0
2017-12-03T05:03:13.557Z,0
2017-12-03T05:04:14.157Z,0
2017-12-03T05:05:14.754Z,0
2017-12-03T05:06:15.354Z,0
2017-12-03T05:07:15.957Z,0
2017-12-03T05:08:16.566Z,0
2017-12-03T05:09:17.164Z,0
2017-12-03T05:10:17.752Z,0
2017-12-03T05:11:18.362Z,0
2017-12-03T05:12:18.974Z,0
2017-12-03T05:13:19.579Z,0
2017-12-03T05:14:20.189Z,0
2017-12-03T05:15:20.801Z,0
2017-12-03T05:16:21.396Z,0
2017-12-03T05:17:22.003Z,0
2017-12-03T05:18:22.626Z,0
2017-12-03T05:19:23.207Z,0
2017-12-03T05:20:23.809Z,0
2017-12-03T05:21:24.405Z,0
2017-12-03T05:22:25.000Z,0
2017-12-03T05:23:25.601Z,0
2017-12-03T05:24:26.200Z,0
2017-12-03T05:25:26.800Z,0
2017-12-03T05:26:27.407Z,0
2017-12-03T05:27:28.010Z,0
2017-12-03T05:28:28.600Z,0
2017-12-03T05:29:29.190Z,0
2017-12-03T05:30:29.783Z,0
2017-12-03T05:31:30.384Z,0
2017-12-03T05:32:30.966Z,0
2017-12-03T05:33:31.569Z,0
2017-12-03T05:34:32.181Z,0
2017-12-03T05:35:32.790Z,0
2017-12-03T05:36:33.399Z,0
2017-12-03T05:37:33.995Z,0
2017-12-03T05:38:34.598Z,0
2017-12-03T05:39:35.197Z,0
2017-12-03T05:40:35.783Z,0
2017-12-03T05:41:36.380Z,0
2017-12-03T05:42:36.969Z,0
2017-12-03T05:43:37.571Z,0
2017-12-03T05:44:38.157Z,0
2017-12-03T05:45:38.743Z,0
2017-12-03T05:46:39.338Z,0
2017-12-03T05:47:39.935Z,0
2017-12-03T05:48:40.540Z,0
2017-12-03T05:49:41.142Z,0
2017-12-03T05:50:41.734Z,0
2017-12-03T05:51:42.331Z,0
2017-12-03T05:52:42.945Z,0
2017-12-03T05:53:43.549Z,0
2017-12-03T05:54:44.153Z,0
2017-12-03T05:55:44.759Z,0
2017-12-03T05:56:45.350Z,0
2017-12-03T05:57:45.942Z,0
2017-12-03T05:58:46.528Z,0
2017-12-03T05:59:47.130Z,0
2017-12-03T06:00:47.735Z,0
2017-12-03T06:01:48.346Z,0
2017-12-03T06:02:48.958Z,0
2017-12-03T06:03:49.543Z,0
2017-12-03T06:04:50.140Z,0
2017-12-03T06:05:50.741Z,0
2017-12-03T06:06:51.345Z,0
2017-12-03T06:07:51.941Z,0
2017-12-03T06:08:52.543Z,0
2017-12-03T06:09:53.134Z,0
2017-12-03T06:10:53.741Z,0
2017-12-03T06:11:54.336Z,0
2017-12-03T06:12:54.946Z,0
2017-12-03T06:13:55.553Z,0
2017-12-03T06:14:56.160Z,0
2017-12-03T06:15:56.746Z,0
2017-12-03T06:16:57.340Z,0
2017-12-03T06:17:57.935Z,0
2017-12-03T06:18:58.536Z,0
2017-12-03T06:19:59.128Z,0
2017-12-03T06:20:59.736Z,0
2017-12-03T06:22:00.324Z,0
2017-12-03T06:23:00.925Z,0
2017-12-03T06:24:01.533Z,0
2017-12-03T06:25:02.127Z,0
2017-12-03T06:26:02.729Z,0
2017-12-03T06:27:03.330Z,0
2017-12-03T06:28:03.939Z,0
2017-12-03T06:29:04.542Z,0
2017-12-03T06:30:05.139Z,0
2017-12-03T06:31:05.741Z,0
2017-12-03T06:32:06.345Z,0
2017-12-03T06:33:06.940Z,0
2017-12-03T06:34:07.533Z,0
2017-12-03T06:35:08.129Z,0
2017-12-03T06:36:08.742Z,0
2017-12-03T06:37:09.342Z,0
2017-12-03T06:38:09.938Z,0
2017-12-03T06:39:10.539Z,0
2017-12-03T06:40:11.147Z,0
2017-12-03T06:41:11.758Z,0
2017-12-03T06:42:12.342Z,0
2017-12-03T06:43:12.948Z,0
2017-12-03T06:44:13.524Z,4
2017-12-03T06:45:14.128Z,4
2017-12-03T06:46:14.728Z,0
2017-12-03T06:47:15.332Z,4
2017-12-03T06:48:15.909Z,4
2017-12-03T06:49:16.505Z,4
2017-12-03T06:50:17.142Z,4
2017-12-03T06:51:17.731Z,4
2017-12-03T06:52:18.323Z,4
2017-12-03T06:53:18.912Z,4
2017-12-03T06:54:19.505Z,4
2017-12-03T06:55:20.109Z,8
2017-12-03T06:56:20.718Z,12
2017-12-03T06:57:21.330Z,12
2017-12-03T06:58:21.934Z,16
2017-12-03T06:59:22.530Z,24
2017-12-03T07:00:23.132Z,24
2017-12-03T07:01:23.727Z,32
2017-12-03T07:02:24.334Z,32
2017-12-03T07:03:24.983Z,36
2017-12-03T07:04:25.571Z,40
2017-12-03T07:05:26.186Z,44
2017-12-03T07:06:26.772Z,48
2017-12-03T07:07:27.387Z,60
2017-12-03T07:08:27.983Z,64
2017-12-03T07:09:28.577Z,76
2017-12-03T07:10:29.182Z,92
2017-12-03T07:11:29.772Z,104
2017-12-03T07:12:30.367Z,116
2017-12-03T07:13:30.967Z,132
2017-12-03T07:14:31.561Z,148
2017-12-03T07:15:32.162Z,160
2017-12-03T07:16:32.748Z,176
2017-12-03T07:17:33.344Z,196
2017-12-03T07:18:33.946Z,216
2017-12-03T07:19:34.548Z,240
2017-12-03T07:20:35.144Z,260
2017-12-03T07:21:35.753Z,280
2017-12-03T07:22:36.347Z,292
2017-12-03T07:23:36.949Z,308
2017-12-03T07:24:37.567Z,336
2017-12-03T07:25:38.158Z,380
2017-12-03T07:26:38.750Z,424
2017-12-03T07:27:39.346Z,464
2017-12-03T07:28:39.958Z,496
2017-12-03T07:29:40.662Z,532
2017-12-03T07:30:41.238Z,576
2017-12-03T07:31:41.826Z,628
2017-12-03T07:32:42.422Z,676
2017-12-03T07:33:43.030Z,720
2017-12-03T07:34:43.624Z,764
2017-12-03T07:35:44.211Z,804
2017-12-03T07:36:44.811Z,836
2017-12-03T07:37:45.411Z,860
2017-12-03T07:38:46.012Z,892
2017-12-03T07:39:46.610Z,936
2017-12-03T07:40:47.217Z,984
2017-12-03T07:41:47.828Z,1040
2017-12-03T07:42:48.441Z,1096
2017-12-03T07:43:49.056Z,1168
2017-12-03T07:44:49.654Z,1240
2017-12-03T07:45:50.269Z,1324
2017-12-03T07:46:50.882Z,1404
2017-12-03T07:47:51.498Z,1476
2017-12-03T07:48:52.086Z,1536
2017-12-03T07:49:52.691Z,1560
2017-12-03T07:50:53.300Z,1584
2017-12-03T07:51:53.895Z,1636
2017-12-03T07:52:54.491Z,1712
2017-12-03T07:53:55.085Z,1800
2017-12-03T07:54:55.684Z,1860
2017-12-03T07:55:56.294Z,1896
2017-12-03T07:56:56.901Z,1896
2017-12-03T07:57:57.498Z,1916
2017-12-03T07:58:58.093Z,1944
2017-12-03T07:59:58.698Z,1972
2017-12-03T08:00:59.310Z,2012
2017-12-03T08:01:59.919Z,2060
2017-12-03T08:03:00.521Z,2136
2017-12-03T08:04:01.120Z,2236
2017-12-03T08:05:01.733Z,2372
2017-12-03T08:06:02.350Z,2536
2017-12-03T08:07:02.948Z,2708
2017-12-03T08:08:03.559Z,2800
2017-12-03T08:09:04.171Z,2820
2017-12-03T08:10:04.784Z,2848
2017-12-03T08:11:05.380Z,2800
2017-12-03T08:12:05.984Z,2800
2017-12-03T08:13:06.592Z,2876
2017-12-03T08:14:07.195Z,2988
2017-12-03T08:15:07.785Z,3024
2017-12-03T08:16:08.392Z,3008
2017-12-03T08:17:09.024Z,2936
2017-12-03T08:18:09.603Z,2832
2017-12-03T08:19:10.211Z,2808
2017-12-03T08:20:10.822Z,2788
2017-12-03T08:21:11.418Z,2792
2017-12-03T08:22:12.008Z,2844
2017-12-03T08:23:12.607Z,2884
2017-12-03T08:24:13.229Z,2996
2017-12-03T08:25:13.814Z,3084
2017-12-03T08:26:14.422Z,3088
2017-12-03T08:27:15.019Z,3040
2017-12-03T08:28:15.626Z,2984
2017-12-03T08:29:16.224Z,2992
2017-12-03T08:30:16.821Z,3072
2017-12-03T08:31:17.411Z,3172
2017-12-03T08:32:18.016Z,3180
2017-12-03T08:33:18.614Z,3140
2017-12-03T08:34:19.219Z,3096
2017-12-03T08:35:19.818Z,3012
2017-12-03T08:36:20.431Z,2848
2017-12-03T08:37:21.029Z,2668
2017-12-03T08:38:21.635Z,2540
2017-12-03T08:39:22.243Z,2504
2017-12-03T08:40:22.844Z,2480
2017-12-03T08:41:23.453Z,2460
2017-12-03T08:42:24.058Z,2488
2017-12-03T08:43:24.664Z,2640
2017-12-03T08:44:25.278Z,2948
2017-12-03T08:45:25.890Z,3252
2017-12-03T08:46:26.491Z,3476
2017-12-03T08:47:27.087Z,3612
2017-12-03T08:48:27.686Z,3684
2017-12-03T08:49:28.288Z,3640
2017-12-03T08:50:28.909Z,3616
2017-12-03T08:51:29.500Z,3608
2017-12-03T08:52:30.102Z,3676
2017-12-03T08:53:30.701Z,3748
2017-12-03T08:54:31.314Z,3680
2017-12-03T08:55:31.916Z,3772
2017-12-03T08:56:32.515Z,3860
2017-12-03T08:57:33.115Z,3916
2017-12-03T08:58:33.721Z,3804
2017-12-03T08:59:34.315Z,3864
2017-12-03T09:00:34.917Z,3964
2017-12-03T09:01:35.523Z,4308
2017-12-03T09:02:36.127Z,4744
2017-12-03T09:03:36.718Z,5180
2017-12-03T09:04:37.315Z,5356
2017-12-03T09:05:37.930Z,5316
2017-12-03T09:06:38.529Z,4984
2017-12-03T09:07:39.144Z,4600
2017-12-03T09:08:39.736Z,4304
2017-12-03T09:09:40.341Z,4012
2017-12-03T09:10:40.937Z,3716
2017-12-03T09:11:41.545Z,3316
2017-12-03T09:12:42.161Z,3072
2017-12-03T09:13:42.761Z,2940
2017-12-03T09:14:43.375Z,2904
2017-12-03T09:15:43.982Z,2824
2017-12-03T09:16:44.585Z,2856
2017-12-03T09:17:45.185Z,3040
2017-12-03T09:18:45.775Z,3188
2017-12-03T09:19:46.379Z,3444
2017-12-03T09:20:46.968Z,3644
2017-12-03T09:21:47.569Z,3840
2017-12-03T09:22:48.182Z,4104
2017-12-03T09:23:48.771Z,4376
2017-12-03T09:24:50.373Z,4456
2017-12-03T09:25:50.971Z,4264
2017-12-03T09:26:51.567Z,4044
2017-12-03T09:27:52.181Z,3748
2017-12-03T09:28:52.782Z,3676
2017-12-03T09:29:53.373Z,3776
2017-12-03T09:30:53.977Z,4028
2017-12-03T09:31:54.590Z,4480
2017-12-03T09:32:55.194Z,4972
2017-12-03T09:33:55.803Z,5436
2017-12-03T09:34:56.414Z,5880
2017-12-03T09:35:57.016Z,6248
2017-12-03T09:36:57.633Z,6652
2017-12-03T09:37:58.269Z,6904
2017-12-03T09:38:58.874Z,7332
2017-12-03T09:39:59.491Z,7560
2017-12-03T09:41:00.108Z,7640
2017-12-03T09:42:00.714Z,7596
2017-12-03T09:43:01.311Z,7568
2017-12-03T09:44:01.925Z,7232
2017-12-03T09:45:02.523Z,6864
2017-12-03T09:46:03.121Z,6572
2017-12-03T09:47:03.718Z,6456
2017-12-03T09:48:04.312Z,5924
2017-12-03T09:49:04.902Z,5456
2017-12-03T09:50:05.517Z,5036
2017-12-03T09:51:06.127Z,4824
2017-12-03T09:52:06.735Z,4732
2017-12-03T09:53:07.343Z,4636
2017-12-03T09:54:07.941Z,4612
2017-12-03T09:55:08.555Z,4740
2017-12-03T09:56:09.197Z,4968
2017-12-03T09:57:09.778Z,5052
2017-12-03T09:58:10.379Z,4952
2017-12-03T09:59:10.987Z,4668
2017-12-03T10:00:11.593Z,4268
2017-12-03T10:01:12.188Z,3812
2017-12-03T10:02:12.783Z,3424
2017-12-03T10:03:13.383Z,3112
2017-12-03T10:04:13.987Z,2876
2017-12-03T10:05:14.597Z,2692
2017-12-03T10:06:15.197Z,2584
2017-12-03T10:07:15.798Z,2556
2017-12-03T10:08:16.394Z,2508
2017-12-03T10:09:17.005Z,2424
2017-12-03T10:10:17.606Z,2336
2017-12-03T10:11:18.205Z,2388
2017-12-03T10:12:18.810Z,2440
2017-12-03T10:13:19.403Z,2504
2017-12-03T10:14:20.006Z,2560
2017-12-03T10:15:20.607Z,2576
2017-12-03T10:16:21.215Z,2676
2017-12-03T10:17:21.819Z,2660
2017-12-03T10:18:22.422Z,2596
2017-12-03T10:19:23.012Z,2560
2017-12-03T10:20:23.613Z,2548
2017-12-03T10:21:24.212Z,2560
2017-12-03T10:22:24.806Z,2664
2017-12-03T10:23:25.412Z,2852
2017-12-03T10:24:26.018Z,3052
2017-12-03T10:25:26.629Z,3256
2017-12-03T10:26:27.236Z,3336
2017-12-03T10:27:27.840Z,3412
2017-12-03T10:28:28.446Z,3596
2017-12-03T10:29:29.034Z,3520
2017-12-03T10:30:29.641Z,3412
2017-12-03T10:31:30.246Z,3412
2017-12-03T10:32:30.852Z,3624
2017-12-03T10:33:31.441Z,3624
2017-12-03T10:34:32.042Z,3616
2017-12-03T10:35:32.651Z,3560
2017-12-03T10:36:33.250Z,3456
2017-12-03T10:37:33.845Z,3408
2017-12-03T10:38:34.448Z,3468
2017-12-03T10:39:35.052Z,3688
2017-12-03T10:40:35.653Z,4136
2017-12-03T10:41:36.265Z,4548
2017-12-03T10:42:36.880Z,4728
2017-12-03T10:43:37.492Z,4648
2017-12-03T10:44:38.105Z,4344
2017-12-03T10:45:38.699Z,4008
2017-12-03T10:46:39.317Z,3736
2017-12-03T10:47:39.931Z,3684
2017-12-03T10:48:40.564Z,3636
2017-12-03T10:49:41.170Z,3652
2017-12-03T10:50:41.779Z,3960
2017-12-03T10:51:42.380Z,4148
2017-12-03T10:52:42.978Z,4188
2017-12-03T10:53:43.591Z,4368
2017-12-03T10:54:44.197Z,4232
2017-12-03T10:55:44.792Z,4252
2017-12-03T10:56:45.402Z,4256
2017-12-03T10:57:46.010Z,4044
2017-12-03T10:58:46.607Z,3892
2017-12-03T10:59:47.206Z,3664
2017-12-03T11:00:47.798Z,3484
2017-12-03T11:01:48.405Z,3512
2017-12-03T11:02:49.018Z,3616
2017-12-03T11:03:49.632Z,3696
2017-12-03T11:04:50.244Z,3852
2017-12-03T11:05:50.853Z,4016
2017-12-03T11:06:51.461Z,4212
2017-12-03T11:07:52.065Z,4628
2017-12-03T11:08:52.673Z,5012
2017-12-03T11:09:53.266Z,5188
2017-12-03T11:10:53.866Z,5304
2017-12-03T11:11:54.474Z,5424
2017-12-03T11:12:55.075Z,5748
2017-12-03T11:13:55.676Z,5700
2017-12-03T11:14:56.311Z,5964
2017-12-03T11:15:56.885Z,6120
2017-12-03T11:16:57.480Z,6488
2017-12-03T11:17:58.082Z,6108
2017-12-03T11:18:58.694Z,6208
2017-12-03T11:19:59.322Z,6280
2017-12-03T11:20:59.927Z,6268
2017-12-03T11:22:00.538Z,6048
2017-12-03T11:23:01.139Z,6120
2017-12-03T11:24:01.744Z,6508
2017-12-03T11:25:02.373Z,7468
2017-12-03T11:26:02.950Z,7252
2017-12-03T11:27:03.552Z,7216
2017-12-03T11:28:04.151Z,7192
2017-12-03T11:29:04.756Z,6784
2017-12-03T11:30:05.366Z,7148
2017-12-03T11:31:05.981Z,7616
2017-12-03T11:32:06.594Z,7564
2017-12-03T11:33:07.212Z,7492
2017-12-03T11:34:07.823Z,7272
2017-12-03T11:35:08.417Z,6680
2017-12-03T11:36:09.028Z,5848
2017-12-03T11:37:09.641Z,6548
2017-12-03T11:38:10.257Z,6432
2017-12-03T11:39:10.855Z,7208
2017-12-03T11:40:11.457Z,8056
2017-12-03T11:41:12.064Z,8196
2017-12-03T11:42:12.677Z,8080
2017-12-03T11:43:13.272Z,7744
2017-12-03T11:44:13.874Z,7364
2017-12-03T11:45:14.477Z,7452
2017-12-03T11:46:15.086Z,7456
2017-12-03T11:47:15.707Z,7184
2017-12-03T11:48:16.326Z,6652
2017-12-03T11:49:16.923Z,6460
2017-12-03T11:50:17.522Z,6432
2017-12-03T11:51:18.120Z,6448
2017-12-03T11:52:18.711Z,6332
2017-12-03T11:53:19.308Z,5952
2017-12-03T11:54:19.913Z,5700
2017-12-03T11:55:20.522Z,5724
2017-12-03T11:56:21.132Z,5836
2017-12-03T11:57:21.746Z,5688
2017-12-03T11:58:22.380Z,5644
2017-12-03T11:59:22.976Z,5424
2017-12-03T12:00:23.591Z,5168
2017-12-03T12:01:24.187Z,5436
2017-12-03T12:02:24.793Z,5532
2017-12-03T12:03:25.413Z,5764
2017-12-03T12:04:26.024Z,5640
2017-12-03T12:05:26.637Z,5684
2017-12-03T12:06:27.239Z,5796
2017-12-03T12:07:27.839Z,5460
2017-12-03T12:08:28.437Z,5252
2017-12-03T12:09:29.055Z,4860
2017-12-03T12:10:29.669Z,4560
2017-12-03T12:11:30.286Z,4576
2017-12-03T12:12:30.894Z,4516
2017-12-03T12:13:31.495Z,4620
2017-12-03T12:14:32.106Z,4228
2017-12-03T12:15:32.716Z,4132
2017-12-03T12:16:33.316Z,3892
2017-12-03T12:17:33.914Z,3464
2017-12-03T12:18:34.512Z,3496
2017-12-03T12:19:35.119Z,3432
2017-12-03T12:20:35.724Z,3656
2017-12-03T12:21:36.324Z,3568
2017-12-03T12:22:36.923Z,3348
2017-12-03T12:23:37.523Z,3288
2017-12-03T12:24:38.130Z,3380
2017-12-03T12:25:38.744Z,3188
2017-12-03T12:26:39.355Z,3248
2017-12-03T12:27:39.972Z,2996
2017-12-03T12:28:40.580Z,3016
2017-12-03T12:29:41.185Z,3284
2017-12-03T12:30:41.792Z,3108
2017-12-03T12:31:42.379Z,2672
2017-12-03T12:32:42.982Z,3048
2017-12-03T12:33:43.597Z,2876
2017-12-03T12:34:44.210Z,2544
2017-12-03T12:35:44.823Z,2512
2017-12-03T12:36:45.423Z,2584
2017-12-03T12:37:46.039Z,2792
2017-12-03T12:38:46.646Z,2824
2017-12-03T12:39:47.243Z,3248
2017-12-03T12:40:47.839Z,2916
2017-12-03T12:41:48.436Z,2832
2017-12-03T12:42:49.051Z,2660
2017-12-03T12:43:49.642Z,2848
2017-12-03T12:44:50.247Z,3144
2017-12-03T12:45:50.849Z,3008
2017-12-03T12:46:51.454Z,2532
2017-12-03T12:47:52.057Z,2576
2017-12-03T12:48:52.653Z,2776
2017-12-03T12:49:53.252Z,3248
2017-12-03T12:50:53.862Z,2728
2017-12-03T12:51:54.471Z,2360
2017-12-03T12:52:55.057Z,2768
2017-12-03T12:53:55.661Z,2844
2017-12-03T12:54:56.256Z,3052
2017-12-03T12:55:56.854Z,3052
2017-12-03T12:56:57.458Z,2876
2017-12-03T12:57:58.051Z,2924
2017-12-03T12:58:58.664Z,2680
2017-12-03T12:59:59.278Z,2668
2017-12-03T13:00:59.870Z,2644
2017-12-03T13:02:00.475Z,2828
2017-12-03T13:03:01.071Z,2768
2017-12-03T13:04:01.686Z,2764
2017-12-03T13:05:02.280Z,2604
2017-12-03T13:06:02.899Z,2800
2017-12-03T13:07:03.508Z,2916
2017-12-03T13:08:04.109Z,2848
2017-12-03T13:09:04.710Z,3208
2017-12-03T13:10:05.321Z,3208
2017-12-03T13:11:05.912Z,3124
2017-12-03T13:12:06.522Z,3420
2017-12-03T13:13:07.141Z,3156
2017-12-03T13:14:07.741Z,2988
2017-12-03T13:15:08.355Z,2896
2017-12-03T13:16:08.962Z,3204
2017-12-03T13:17:09.573Z,3024
2017-12-03T13:18:10.171Z,2880
2017-12-03T13:19:10.789Z,2924
2017-12-03T13:20:11.402Z,2644
2017-12-03T13:21:12.010Z,2560
2017-12-03T13:22:12.622Z,2724
2017-12-03T13:23:13.229Z,2984
2017-12-03T13:24:13.836Z,2860
2017-12-03T13:25:14.441Z,3152
2017-12-03T13:26:15.055Z,3376
2017-12-03T13:27:15.660Z,3256
2017-12-03T13:28:16.251Z,3184
2017-12-03T13:29:16.856Z,3340
2017-12-03T13:30:17.470Z,3172
2017-12-03T13:31:18.091Z,3348
2017-12-03T13:32:18.682Z,3068
2017-12-03T13:33:19.282Z,3132
2017-12-03T13:34:19.889Z,3304
2017-12-03T13:35:20.477Z,3036
2017-12-03T13:36:21.088Z,2968
2017-12-03T13:37:21.697Z,3112
2017-12-03T13:38:22.307Z,3312
2017-12-03T13:39:22.913Z,3056
2017-12-03T13:40:23.514Z,2764
2017-12-03T13:41:24.128Z,2684
2017-12-03T13:42:24.741Z,2772
2017-12-03T13:43:25.349Z,2624
2017-12-03T13:44:25.950Z,2548
2017-12-03T13:45:26.552Z,2548
2017-12-03T13:46:27.156Z,2332
2017-12-03T13:47:27.751Z,2608
2017-12-03T13:48:28.349Z,2488
2017-12-03T13:49:28.960Z,2468
2017-12-03T13:50:29.555Z,2496
2017-12-03T13:51:30.150Z,2340
2017-12-03T13:52:30.755Z,2292
2017-12-03T13:53:31.362Z,2456
2017-12-03T13:54:31.979Z,2412
2017-12-03T13:55:32.585Z,2464
2017-12-03T13:56:33.194Z,2192
2017-12-03T13:57:33.791Z,1952
2017-12-03T13:58:34.379Z,2020
2017-12-03T13:59:35.117Z,1984
2017-12-03T14:00:35.641Z,1964
2017-12-03T14:01:36.214Z,1780
2017-12-03T14:02:36.818Z,1728
2017-12-03T14:03:37.415Z,1588
2017-12-03T14:04:38.012Z,1552
2017-12-03T14:05:38.611Z,1568
2017-12-03T14:06:39.209Z,1708
2017-12-03T14:07:39.811Z,1696
2017-12-03T14:08:40.430Z,1788
2017-12-03T14:09:41.018Z,1796
2017-12-03T14:10:41.625Z,1844